createdAt,value
2018-11-05T00:00:14.376Z,0.00
2018-11-05T00:01:14.513Z,0.00
2018-11-05T00:02:14.660Z,0.00
2018-11-05T00:03:14.791Z,0.00
2018-11-05T00:04:14.925Z,0.00
2018-11-05T00:05:15.058Z,0.00
2018-11-05T00:06:15.218Z,0.00
2018-11-05T00:07:15.345Z,0.00
2018-11-05T00:08:15.478Z,0.00
2018-11-05T00:09:15.607Z,0.00
2018-11-05T00:10:15.745Z,0.00
2018-11-05T00:11:15.874Z,0.00
2018-11-05T00:12:16.011Z,0.00
2018-11-05T00:13:16.167Z,0.00
2018-11-05T00:14:16.331Z,0.00
2018-11-05T00:15:16.462Z,0.00
2018-11-05T00:16:16.582Z,0.00
2018-11-05T00:17:16.733Z,0.00
2018-11-05T00:18:16.899Z,0.00
2018-11-05T00:19:17.065Z,0.00
2018-11-05T00:20:17.195Z,0.00
2018-11-05T00:21:17.350Z,0.00
2018-11-05T00:22:17.487Z,0.00
2018-11-05T00:23:17.623Z,0.00
2018-11-05T00:24:17.753Z,0.00
2018-11-05T00:25:17.915Z,0.00
2018-11-05T00:26:18.044Z,0.00
2018-11-05T00:27:18.182Z,0.00
2018-11-05T00:28:18.312Z,0.00
2018-11-05T00:29:18.473Z,0.00
2018-11-05T00:30:18.601Z,0.00
2018-11-05T00:31:18.740Z,0.00
2018-11-05T00:32:18.894Z,0.00
2018-11-05T00:33:19.042Z,0.00
2018-11-05T00:34:19.174Z,0.00
2018-11-05T00:35:19.313Z,0.00
2018-11-05T00:36:19.449Z,0.00
2018-11-05T00:37:19.595Z,0.00
2018-11-05T00:38:19.730Z,0.00
2018-11-05T00:39:19.875Z,0.00
2018-11-05T00:40:20.009Z,0.00
2018-11-05T00:41:20.147Z,0.00
2018-11-05T00:42:20.273Z,0.00
2018-11-05T00:43:20.407Z,0.00
2018-11-05T00:44:20.552Z,0.00
2018-11-05T00:45:20.712Z,0.00
2018-11-05T00:46:20.934Z,0.00
2018-11-05T00:47:20.946Z,0.00
2018-11-05T00:48:21.079Z,0.00
2018-11-05T00:49:21.225Z,0.00
2018-11-05T00:50:21.359Z,0.00
2018-11-05T00:51:21.496Z,0.00
2018-11-05T00:52:21.639Z,0.00
2018-11-05T00:53:21.789Z,0.00
2018-11-05T00:54:21.924Z,0.00
2018-11-05T00:55:22.082Z,0.00
2018-11-05T00:56:22.232Z,0.00
2018-11-05T00:57:22.406Z,0.00
2018-11-05T00:58:22.543Z,0.00
2018-11-05T00:59:22.703Z,0.00
2018-11-05T01:00:22.840Z,0.00
2018-11-05T01:01:22.973Z,0.00
2018-11-05T01:02:23.107Z,0.00
2018-11-05T01:03:23.260Z,0.00
2018-11-05T01:04:23.503Z,0.00
2018-11-05T01:05:23.514Z,0.00
2018-11-05T01:06:23.647Z,0.00
2018-11-05T01:07:23.803Z,0.00
2018-11-05T01:08:23.934Z,0.00
2018-11-05T01:09:24.800Z,0.00
2018-11-05T01:11:56.569Z,0.00
2018-11-05T01:12:57.234Z,0.00
2018-11-05T01:13:56.850Z,0.00
2018-11-05T01:14:56.989Z,0.00
2018-11-05T01:15:57.120Z,0.00
2018-11-05T01:16:57.251Z,0.00
2018-11-05T01:17:57.411Z,0.00
2018-11-05T01:18:57.571Z,0.00
2018-11-05T01:19:57.679Z,0.00
2018-11-05T01:20:57.826Z,0.00
2018-11-05T01:21:57.985Z,0.00
2018-11-05T01:22:58.122Z,0.00
2018-11-05T01:23:58.256Z,0.00
2018-11-05T01:24:58.390Z,0.00
2018-11-05T01:25:58.589Z,0.00
2018-11-05T01:26:58.720Z,0.00
2018-11-05T01:27:58.847Z,0.00
2018-11-05T01:28:59.834Z,0.00
2018-11-05T01:29:59.152Z,0.00
2018-11-05T01:30:59.286Z,0.00
2018-11-05T01:31:59.418Z,0.00
2018-11-05T01:32:59.571Z,0.00
2018-11-05T01:33:59.701Z,0.00
2018-11-05T01:34:59.837Z,0.00
2018-11-05T01:35:59.971Z,0.00
2018-11-05T01:37:00.128Z,0.00
2018-11-05T01:38:00.240Z,0.00
2018-11-05T01:39:00.372Z,0.00
2018-11-05T01:40:00.503Z,0.00
2018-11-05T01:41:00.663Z,0.00
2018-11-05T01:42:00.790Z,0.00
2018-11-05T01:43:00.919Z,0.00
2018-11-05T01:44:01.059Z,0.00
2018-11-05T01:45:01.234Z,0.00
2018-11-05T01:46:01.466Z,0.00
2018-11-05T01:47:01.474Z,0.00
2018-11-05T01:48:01.615Z,0.00
2018-11-05T01:49:01.767Z,0.00
2018-11-05T01:50:02.005Z,0.00
2018-11-05T01:51:02.008Z,0.00
2018-11-05T01:52:02.137Z,0.00
2018-11-05T01:53:02.277Z,0.00
2018-11-05T01:54:03.253Z,0.00
2018-11-05T01:55:02.541Z,0.00
2018-11-05T01:56:02.696Z,0.00
2018-11-05T01:57:02.827Z,0.00
2018-11-05T01:58:02.963Z,0.00
2018-11-05T01:59:03.107Z,0.00
2018-11-05T02:00:03.245Z,0.00
2018-11-05T02:01:03.407Z,0.00
2018-11-05T02:02:03.537Z,0.00
2018-11-05T02:03:03.675Z,0.00
2018-11-05T02:04:03.843Z,0.00
2018-11-05T02:05:03.968Z,0.00
2018-11-05T02:06:04.162Z,0.00
2018-11-05T02:07:04.294Z,0.00
2018-11-05T02:08:04.460Z,0.00
2018-11-05T02:09:04.721Z,0.00
2018-11-05T02:10:04.782Z,0.00
2018-11-05T02:11:04.869Z,0.00
2018-11-05T02:12:05.023Z,0.00
2018-11-05T02:13:05.242Z,0.00
2018-11-05T02:14:05.238Z,0.00
2018-11-05T02:15:05.369Z,0.00
2018-11-05T02:16:05.605Z,0.00
2018-11-05T02:17:05.635Z,0.00
2018-11-05T02:18:05.877Z,0.00
2018-11-05T02:19:05.886Z,0.00
2018-11-05T02:20:06.057Z,0.00
2018-11-05T02:21:06.176Z,0.00
2018-11-05T02:22:06.414Z,0.00
2018-11-05T02:23:06.474Z,0.00
2018-11-05T02:24:06.637Z,0.00
2018-11-05T02:25:06.772Z,0.00
2018-11-05T02:26:06.925Z,0.00
2018-11-05T02:27:07.090Z,0.00
2018-11-05T02:28:07.208Z,0.00
2018-11-05T02:29:07.349Z,0.00
2018-11-05T02:30:07.477Z,0.00
2018-11-05T02:31:07.630Z,0.00
2018-11-05T02:32:07.753Z,0.00
2018-11-05T02:33:07.890Z,0.00
2018-11-05T02:34:08.024Z,0.00
2018-11-05T02:35:08.193Z,0.00
2018-11-05T02:36:08.354Z,0.00
2018-11-05T02:37:08.488Z,0.00
2018-11-05T02:38:08.680Z,0.00
2018-11-05T02:39:08.846Z,0.00
2018-11-05T02:40:08.964Z,0.00
2018-11-05T02:41:09.139Z,0.00
2018-11-05T02:42:09.274Z,0.00
2018-11-05T02:43:09.433Z,0.00
2018-11-05T02:44:09.634Z,0.00
2018-11-05T02:45:09.641Z,0.00
2018-11-05T02:46:09.781Z,0.00
2018-11-05T02:47:09.930Z,0.00
2018-11-05T02:48:10.184Z,0.00
2018-11-05T02:49:10.187Z,0.00
2018-11-05T02:50:10.320Z,0.00
2018-11-05T02:51:10.469Z,0.00
2018-11-05T02:52:10.718Z,0.00
2018-11-05T02:53:10.722Z,0.00
2018-11-05T02:54:10.862Z,0.00
2018-11-05T02:55:10.997Z,0.00
2018-11-05T02:56:11.128Z,0.00
2018-11-05T02:57:11.268Z,0.00
2018-11-05T02:58:11.399Z,0.00
2018-11-05T02:59:11.541Z,0.00
2018-11-05T03:00:11.673Z,0.00
2018-11-05T03:01:11.809Z,0.00
2018-11-05T03:02:11.945Z,0.00
2018-11-05T03:03:12.091Z,0.00
2018-11-05T03:04:12.219Z,0.00
2018-11-05T03:05:12.358Z,0.00
2018-11-05T03:06:12.489Z,0.00
2018-11-05T03:07:12.625Z,0.00
2018-11-05T03:08:12.758Z,0.00
2018-11-05T03:09:12.889Z,0.00
2018-11-05T03:10:13.055Z,0.00
2018-11-05T03:11:13.196Z,0.00
2018-11-05T03:12:13.328Z,0.00
2018-11-05T03:13:13.466Z,0.00
2018-11-05T03:14:13.597Z,0.00
2018-11-05T03:15:13.734Z,0.00
2018-11-05T03:16:13.867Z,0.00
2018-11-05T03:17:14.003Z,0.00
2018-11-05T03:18:14.143Z,0.00
2018-11-05T03:19:14.272Z,0.00
2018-11-05T03:20:14.410Z,0.00
2018-11-05T03:21:14.547Z,0.00
2018-11-05T03:22:14.682Z,0.00
2018-11-05T03:23:14.833Z,0.00
2018-11-05T03:24:14.961Z,0.00
2018-11-05T03:25:15.095Z,0.00
2018-11-05T03:26:15.230Z,0.00
2018-11-05T03:27:15.363Z,0.00
2018-11-05T03:28:15.500Z,0.00
2018-11-05T03:29:15.634Z,0.00
2018-11-05T03:30:15.781Z,0.00
2018-11-05T03:31:15.906Z,0.00
2018-11-05T03:32:16.036Z,0.00
2018-11-05T03:33:16.167Z,0.00
2018-11-05T03:34:16.305Z,0.00
2018-11-05T03:35:16.441Z,0.00
2018-11-05T03:36:16.573Z,0.00
2018-11-05T03:37:16.708Z,0.00
2018-11-05T03:38:16.846Z,0.00
2018-11-05T03:39:16.984Z,0.00
2018-11-05T03:40:17.158Z,0.00
2018-11-05T03:41:17.294Z,0.00
2018-11-05T03:42:17.431Z,0.00
2018-11-05T03:43:17.566Z,0.00
2018-11-05T03:44:17.697Z,0.00
2018-11-05T03:45:17.835Z,0.00
2018-11-05T03:46:17.965Z,0.00
2018-11-05T03:47:18.098Z,0.00
2018-11-05T03:48:18.235Z,0.00
2018-11-05T03:49:18.366Z,0.00
2018-11-05T03:50:18.501Z,0.00
2018-11-05T03:51:18.638Z,0.00
2018-11-05T03:52:18.776Z,0.00
2018-11-05T03:53:18.908Z,0.00
2018-11-05T03:54:19.043Z,0.00
2018-11-05T03:55:19.179Z,0.00
2018-11-05T03:56:19.513Z,0.00
2018-11-05T03:57:19.443Z,0.00
2018-11-05T03:58:19.579Z,0.00
2018-11-05T03:59:19.717Z,0.00
2018-11-05T04:00:19.848Z,0.00
2018-11-05T04:01:19.993Z,0.00
2018-11-05T04:02:20.124Z,0.00
2018-11-05T04:03:20.362Z,0.00
2018-11-05T04:04:20.392Z,0.00
2018-11-05T04:05:20.528Z,0.00
2018-11-05T04:06:20.662Z,0.00
2018-11-05T04:07:20.802Z,0.00
2018-11-05T04:08:20.970Z,0.00
2018-11-05T04:09:21.106Z,0.00
2018-11-05T04:10:21.242Z,0.00
2018-11-05T04:11:21.416Z,0.00
2018-11-05T04:12:21.545Z,0.00
2018-11-05T04:13:21.681Z,0.00
2018-11-05T04:14:21.818Z,0.00
2018-11-05T04:15:22.015Z,0.00
2018-11-05T04:16:22.088Z,0.00
2018-11-05T04:17:22.223Z,0.00
2018-11-05T04:18:22.356Z,0.00
2018-11-05T04:19:22.498Z,0.00
2018-11-05T04:20:22.702Z,0.00
2018-11-05T04:21:22.706Z,0.00
2018-11-05T04:22:22.841Z,0.00
2018-11-05T04:23:23.005Z,0.00
2018-11-05T04:24:23.136Z,0.00
2018-11-05T04:25:23.270Z,0.00
2018-11-05T04:26:23.406Z,0.00
2018-11-05T04:27:23.561Z,0.00
2018-11-05T04:28:23.747Z,0.00
2018-11-05T04:29:23.886Z,0.00
2018-11-05T04:30:24.017Z,0.00
2018-11-05T04:31:24.154Z,0.00
2018-11-05T04:32:24.392Z,0.00
2018-11-05T04:33:24.398Z,0.00
2018-11-05T04:34:24.537Z,0.00
2018-11-05T04:35:24.696Z,0.00
2018-11-05T04:36:24.931Z,0.00
2018-11-05T04:37:24.936Z,0.00
2018-11-05T04:38:25.070Z,0.00
2018-11-05T04:39:25.223Z,0.00
2018-11-05T04:40:25.466Z,0.00
2018-11-05T04:41:25.483Z,0.00
2018-11-05T04:42:25.618Z,0.00
2018-11-05T04:43:25.775Z,0.00
2018-11-05T04:44:47.948Z,0.00
2018-11-05T04:45:26.076Z,0.00
2018-11-05T04:46:26.885Z,0.00
2018-11-05T04:47:26.452Z,0.00
2018-11-05T04:48:31.455Z,0.00
2018-11-05T04:49:26.712Z,0.00
2018-11-05T04:50:26.846Z,0.00
2018-11-05T04:51:26.985Z,0.00
2018-11-05T04:52:27.125Z,0.00
2018-11-05T04:53:27.258Z,0.00
2018-11-05T04:54:27.391Z,0.00
2018-11-05T04:55:27.529Z,0.00
2018-11-05T04:56:27.665Z,0.00
2018-11-05T04:57:27.800Z,0.00
2018-11-05T04:58:27.935Z,0.00
2018-11-05T04:59:28.067Z,0.00
2018-11-05T05:00:28.199Z,0.00
2018-11-05T05:01:28.337Z,0.00
2018-11-05T05:02:28.471Z,0.00
2018-11-05T05:03:28.654Z,0.00
2018-11-05T05:04:28.736Z,0.00
2018-11-05T05:05:28.873Z,0.00
2018-11-05T05:06:29.009Z,0.00
2018-11-05T05:07:29.143Z,0.00
2018-11-05T05:08:29.283Z,0.00
2018-11-05T05:09:29.413Z,0.00
2018-11-05T05:10:29.552Z,0.00
2018-11-05T05:11:29.683Z,0.00
2018-11-05T05:12:29.818Z,0.00
2018-11-05T05:13:29.955Z,0.00
2018-11-05T05:14:30.091Z,0.00
2018-11-05T05:15:30.224Z,0.00
2018-11-05T05:16:30.371Z,0.00
2018-11-05T05:17:30.498Z,0.00
2018-11-05T05:18:30.635Z,0.00
2018-11-05T05:19:30.783Z,0.00
2018-11-05T05:20:30.915Z,0.00
2018-11-05T05:21:31.053Z,0.00
2018-11-05T05:22:31.235Z,0.00
2018-11-05T05:23:31.319Z,0.00
2018-11-05T05:24:31.497Z,0.00
2018-11-05T05:25:31.632Z,0.00
2018-11-05T05:26:31.762Z,0.00
2018-11-05T05:27:31.904Z,0.00
2018-11-05T05:28:32.036Z,0.00
2018-11-05T05:29:32.169Z,0.00
2018-11-05T05:30:32.311Z,0.00
2018-11-05T05:31:32.441Z,0.00
2018-11-05T05:32:32.579Z,0.00
2018-11-05T05:33:32.858Z,0.00
2018-11-05T05:34:32.847Z,0.00
2018-11-05T05:35:32.989Z,0.00
2018-11-05T05:36:33.120Z,0.00
2018-11-05T05:37:33.260Z,0.00
2018-11-05T05:38:33.390Z,0.00
2018-11-05T05:39:33.526Z,0.00
2018-11-05T05:40:33.682Z,0.00
2018-11-05T05:41:33.800Z,0.00
2018-11-05T05:42:33.932Z,0.00
2018-11-05T05:43:34.071Z,0.00
2018-11-05T05:44:34.204Z,0.00
2018-11-05T05:45:34.337Z,0.00
2018-11-05T05:46:34.484Z,0.00
2018-11-05T05:47:34.608Z,0.00
2018-11-05T05:48:34.742Z,0.00
2018-11-05T05:49:34.878Z,0.00
2018-11-05T05:50:35.020Z,0.00
2018-11-05T05:51:35.151Z,0.00
2018-11-05T05:52:35.285Z,0.00
2018-11-05T05:53:35.458Z,0.00
2018-11-05T05:54:35.589Z,0.00
2018-11-05T05:55:35.730Z,4.00
2018-11-05T05:56:35.861Z,4.00
2018-11-05T05:57:35.997Z,0.00
2018-11-05T05:58:36.125Z,4.00
2018-11-05T05:59:36.268Z,4.00
2018-11-05T06:00:36.406Z,8.00
2018-11-05T06:01:36.539Z,4.00
2018-11-05T06:02:36.706Z,8.00
2018-11-05T06:03:36.848Z,8.00
2018-11-05T06:04:36.982Z,8.00
2018-11-05T06:05:37.917Z,8.00
2018-11-05T06:06:37.382Z,12.00
2018-11-05T06:07:37.411Z,16.00
2018-11-05T06:08:38.416Z,16.00
2018-11-05T06:09:37.708Z,20.00
2018-11-05T06:10:37.836Z,24.00
2018-11-05T06:11:37.971Z,24.00
2018-11-05T06:12:38.103Z,28.00
2018-11-05T06:13:38.240Z,32.00
2018-11-05T06:14:38.368Z,36.00
2018-11-05T06:15:38.508Z,40.00
2018-11-05T06:16:38.638Z,48.00
2018-11-05T06:17:38.766Z,48.00
2018-11-05T06:18:38.901Z,52.00
2018-11-05T06:19:39.036Z,56.00
2018-11-05T06:20:39.168Z,64.00
2018-11-05T06:21:39.363Z,68.00
2018-11-05T06:22:39.440Z,76.00
2018-11-05T06:23:39.570Z,76.00
2018-11-05T06:24:39.713Z,80.00
2018-11-05T06:25:39.844Z,84.00
2018-11-05T06:26:39.977Z,96.00
2018-11-05T06:27:40.115Z,100.00
2018-11-05T06:28:40.314Z,112.00
2018-11-05T06:29:40.377Z,120.00
2018-11-05T06:30:40.510Z,132.00
2018-11-05T06:31:41.433Z,140.00
2018-11-05T06:32:40.725Z,156.00
2018-11-05T06:33:40.847Z,168.00
2018-11-05T06:34:40.982Z,176.00
2018-11-05T06:35:41.116Z,176.00
2018-11-05T06:36:41.245Z,180.00
2018-11-05T06:37:41.379Z,180.00
2018-11-05T06:38:41.522Z,196.00
2018-11-05T06:39:41.655Z,212.00
2018-11-05T06:40:41.790Z,228.00
2018-11-05T06:41:41.978Z,244.00
2018-11-05T06:42:42.060Z,256.00
2018-11-05T06:43:42.188Z,268.00
2018-11-05T06:44:42.344Z,276.00
2018-11-05T06:45:42.458Z,292.00
2018-11-05T06:46:42.592Z,316.00
2018-11-05T06:47:42.725Z,336.00
2018-11-05T06:48:42.948Z,364.00
2018-11-05T06:49:43.048Z,372.00
2018-11-05T06:50:43.184Z,368.00
2018-11-05T06:51:43.363Z,372.00
2018-11-05T06:52:43.562Z,380.00
2018-11-05T06:53:43.568Z,372.00
2018-11-05T06:54:43.705Z,380.00
2018-11-05T06:55:43.876Z,416.00
2018-11-05T06:56:44.106Z,432.00
2018-11-05T06:57:44.187Z,436.00
2018-11-05T06:58:44.253Z,420.00
2018-11-05T06:59:44.428Z,396.00
2018-11-05T07:00:44.638Z,428.00
2018-11-05T07:01:44.646Z,476.00
2018-11-05T07:02:44.779Z,492.00
2018-11-05T07:03:44.928Z,500.00
2018-11-05T07:04:45.074Z,544.00
2018-11-05T07:05:45.226Z,548.00
2018-11-05T07:06:45.338Z,560.00
2018-11-05T07:07:45.506Z,536.00
2018-11-05T07:08:45.632Z,524.00
2018-11-05T07:09:45.792Z,564.00
2018-11-05T07:10:45.897Z,520.00
2018-11-05T07:11:46.053Z,576.00
2018-11-05T07:12:46.183Z,600.00
2018-11-05T07:13:46.318Z,616.00
2018-11-05T07:14:46.454Z,660.00
2018-11-05T07:15:46.606Z,660.00
2018-11-05T07:16:46.787Z,656.00
2018-11-05T07:17:46.921Z,648.00
2018-11-05T07:18:47.147Z,612.00
2018-11-05T07:19:47.209Z,616.00
2018-11-05T07:20:47.344Z,608.00
2018-11-05T07:21:47.478Z,628.00
2018-11-05T07:22:47.609Z,736.00
2018-11-05T07:23:47.764Z,776.00
2018-11-05T07:24:47.967Z,788.00
2018-11-05T07:25:47.976Z,776.00
2018-11-05T07:26:48.115Z,752.00
2018-11-05T07:27:48.493Z,776.00
2018-11-05T07:28:48.413Z,796.00
2018-11-05T07:29:48.546Z,848.00
2018-11-05T07:30:48.677Z,828.00
2018-11-05T07:31:48.806Z,812.00
2018-11-05T07:32:49.954Z,768.00
2018-11-05T07:33:49.195Z,796.00
2018-11-05T07:34:49.170Z,912.00
2018-11-05T07:35:49.310Z,996.00
2018-11-05T07:36:49.450Z,920.00
2018-11-05T07:37:49.571Z,972.00
2018-11-05T07:38:49.708Z,1032.00
2018-11-05T07:39:49.876Z,1016.00
2018-11-05T07:40:50.020Z,1020.00
2018-11-05T07:41:50.148Z,808.00
2018-11-05T07:42:50.288Z,892.00
2018-11-05T07:43:50.438Z,1120.00
2018-11-05T07:44:50.663Z,1220.00
2018-11-05T07:45:50.674Z,1276.00
2018-11-05T07:46:50.798Z,1184.00
2018-11-05T07:47:51.001Z,1200.00
2018-11-05T07:48:51.086Z,1128.00
2018-11-05T07:49:51.237Z,1036.00
2018-11-05T07:50:51.429Z,992.00
2018-11-05T07:51:51.528Z,836.00
2018-11-05T07:52:51.673Z,924.00
2018-11-05T07:53:51.815Z,912.00
2018-11-05T07:54:51.944Z,912.00
2018-11-05T07:55:52.097Z,920.00
2018-11-05T07:56:52.447Z,868.00
2018-11-05T07:57:52.410Z,884.00
2018-11-05T07:58:52.553Z,840.00
2018-11-05T07:59:52.712Z,1012.00
2018-11-05T08:00:52.848Z,1060.00
2018-11-05T08:01:53.867Z,1152.00
2018-11-05T08:02:53.249Z,1168.00
2018-11-05T08:03:53.299Z,1168.00
2018-11-05T08:04:53.443Z,1092.00
2018-11-05T08:05:53.574Z,1072.00
2018-11-05T08:06:53.748Z,1164.00
2018-11-05T08:07:53.876Z,1304.00
2018-11-05T08:08:54.011Z,1492.00
2018-11-05T08:09:54.144Z,1652.00
2018-11-05T08:10:54.287Z,1784.00
2018-11-05T08:11:54.419Z,2076.00
2018-11-05T08:12:54.547Z,1888.00
2018-11-05T08:13:54.687Z,1696.00
2018-11-05T08:14:54.870Z,1604.00
2018-11-05T08:15:55.002Z,1600.00
2018-11-05T08:16:55.908Z,1684.00
2018-11-05T08:17:55.279Z,1728.00
2018-11-05T08:18:55.410Z,1496.00
2018-11-05T08:19:55.584Z,1436.00
2018-11-05T08:20:55.736Z,1528.00
2018-11-05T08:21:55.893Z,1508.00
2018-11-05T08:22:56.035Z,1544.00
2018-11-05T08:23:56.163Z,1652.00
2018-11-05T08:24:56.299Z,1760.00
2018-11-05T08:25:56.433Z,1812.00
2018-11-05T08:26:56.565Z,1988.00
2018-11-05T08:27:56.698Z,1936.00
2018-11-05T08:28:56.840Z,2272.00
2018-11-05T08:29:57.008Z,2332.00
2018-11-05T08:30:57.213Z,2312.00
2018-11-05T08:31:57.226Z,2256.00
2018-11-05T08:32:57.357Z,2220.00
2018-11-05T08:33:57.519Z,2040.00
2018-11-05T08:34:58.731Z,1944.00
2018-11-05T08:35:57.733Z,1916.00
2018-11-05T08:36:57.861Z,2032.00
2018-11-05T08:37:58.064Z,1980.00
2018-11-05T08:39:02.917Z,1876.00
2018-11-05T08:39:58.307Z,2088.00
2018-11-05T08:40:58.432Z,2124.00
2018-11-05T08:41:58.589Z,2208.00
2018-11-05T08:42:58.714Z,2272.00
2018-11-05T08:43:58.847Z,2532.00
2018-11-05T08:44:58.979Z,2572.00
2018-11-05T08:45:59.189Z,2436.00
2018-11-05T08:46:59.310Z,2496.00
2018-11-05T08:47:59.325Z,2408.00
2018-11-05T08:48:59.459Z,2308.00
2018-11-05T08:49:59.627Z,2132.00
2018-11-05T08:51:14.620Z,2344.00
2018-11-05T08:51:59.933Z,2544.00
2018-11-05T08:53:00.063Z,2496.00
2018-11-05T08:54:00.263Z,2376.00
2018-11-05T08:55:00.334Z,2572.00
2018-11-05T08:56:00.464Z,2512.00
2018-11-05T08:57:00.602Z,2356.00
2018-11-05T08:58:00.740Z,2584.00
2018-11-05T08:59:00.879Z,2668.00
2018-11-05T09:00:01.011Z,2856.00
2018-11-05T09:01:01.188Z,3088.00
2018-11-05T09:02:01.282Z,3212.00
2018-11-05T09:03:01.416Z,3816.00
2018-11-05T09:04:01.555Z,3836.00
2018-11-05T09:05:01.755Z,3796.00
2018-11-05T09:06:01.822Z,3948.00
2018-11-05T09:07:01.954Z,3924.00
2018-11-05T09:08:02.087Z,4240.00
2018-11-05T09:09:02.222Z,4212.00
2018-11-05T09:10:02.498Z,4288.00
2018-11-05T09:11:02.979Z,4128.00
2018-11-05T09:12:02.707Z,4108.00
2018-11-05T09:13:02.755Z,3920.00
2018-11-05T09:14:02.928Z,3884.00
2018-11-05T09:15:03.112Z,4000.00
2018-11-05T09:16:03.281Z,4032.00
2018-11-05T09:17:03.459Z,3884.00
2018-11-05T09:18:03.506Z,3744.00
2018-11-05T09:19:03.640Z,3836.00
2018-11-05T09:20:03.787Z,4104.00
2018-11-05T09:21:03.918Z,4332.00
2018-11-05T09:22:04.052Z,4488.00
2018-11-05T09:23:04.215Z,4480.00
2018-11-05T09:24:04.351Z,4860.00
2018-11-05T09:25:04.489Z,5284.00
2018-11-05T09:26:04.648Z,5244.00
2018-11-05T09:27:04.791Z,5412.00
2018-11-05T09:28:05.086Z,5400.00
2018-11-05T09:29:05.078Z,5128.00
2018-11-05T09:30:05.225Z,5216.00
2018-11-05T09:31:05.368Z,5212.00
2018-11-05T09:32:05.607Z,5216.00
2018-11-05T09:33:05.614Z,5392.00
2018-11-05T09:34:05.768Z,5344.00
2018-11-05T09:35:05.935Z,5384.00
2018-11-05T09:36:06.066Z,5400.00
2018-11-05T09:37:06.214Z,5320.00
2018-11-05T09:38:06.365Z,5432.00
2018-11-05T09:39:06.505Z,5524.00
2018-11-05T09:40:06.635Z,5732.00
2018-11-05T09:41:06.797Z,5968.00
2018-11-05T09:42:06.934Z,6136.00
2018-11-05T09:43:07.068Z,6288.00
2018-11-05T09:44:07.199Z,6400.00
2018-11-05T09:45:07.336Z,6456.00
2018-11-05T09:46:07.506Z,6456.00
2018-11-05T09:47:07.537Z,6552.00
2018-11-05T09:48:07.666Z,6556.00
2018-11-05T09:49:07.805Z,6412.00
2018-11-05T09:50:07.983Z,6452.00
2018-11-05T09:51:08.116Z,6336.00
2018-11-05T09:52:08.250Z,6580.00
2018-11-05T09:53:08.405Z,6564.00
2018-11-05T09:54:08.543Z,6508.00
2018-11-05T09:55:08.679Z,6564.00
2018-11-05T09:56:08.843Z,6400.00
2018-11-05T09:57:09.055Z,6412.00
2018-11-05T09:58:09.122Z,5892.00
2018-11-05T09:59:09.266Z,6328.00
2018-11-05T10:00:09.403Z,6432.00
2018-11-05T10:01:09.538Z,6016.00
2018-11-05T10:02:09.709Z,6096.00
2018-11-05T10:04:42.791Z,6660.00
2018-11-05T10:05:42.560Z,6568.00
2018-11-05T10:06:42.689Z,6740.00
2018-11-05T10:07:42.827Z,6584.00
2018-11-05T10:08:42.962Z,6788.00
2018-11-05T10:09:43.140Z,6788.00
2018-11-05T10:10:43.229Z,6648.00
2018-11-05T10:11:43.361Z,6948.00
2018-11-05T10:12:43.496Z,6988.00
2018-11-05T10:13:43.632Z,6816.00
2018-11-05T10:14:43.767Z,6720.00
2018-11-05T10:15:43.903Z,6796.00
2018-11-05T10:16:44.045Z,6808.00
2018-11-05T10:17:44.176Z,7316.00
2018-11-05T10:18:44.322Z,7024.00
2018-11-05T10:19:44.454Z,7260.00
2018-11-05T10:20:44.580Z,7244.00
2018-11-05T10:21:44.720Z,7584.00
2018-11-05T10:22:44.862Z,7556.00
2018-11-05T10:23:44.999Z,7548.00
2018-11-05T10:24:45.171Z,7492.00
2018-11-05T10:25:45.266Z,7180.00
2018-11-05T10:26:45.434Z,7236.00
2018-11-05T10:27:45.575Z,7020.00
2018-11-05T10:28:45.711Z,7084.00
2018-11-05T10:29:45.873Z,6828.00
2018-11-05T10:30:46.020Z,6936.00
2018-11-05T10:31:46.157Z,7048.00
2018-11-05T10:32:46.293Z,6760.00
2018-11-05T10:33:46.520Z,6904.00
2018-11-05T10:34:46.566Z,6884.00
2018-11-05T10:35:46.706Z,6996.00
2018-11-05T10:36:46.854Z,7108.00
2018-11-05T10:37:46.990Z,6908.00
2018-11-05T10:38:47.194Z,6732.00
2018-11-05T10:39:47.207Z,6984.00
2018-11-05T10:40:47.341Z,7212.00
2018-11-05T10:41:47.477Z,6956.00
2018-11-05T10:42:47.618Z,6932.00
2018-11-05T10:43:47.749Z,6956.00
2018-11-05T10:44:47.901Z,6284.00
2018-11-05T10:45:48.037Z,6576.00
2018-11-05T10:46:48.173Z,6820.00
2018-11-05T10:47:48.313Z,6636.00
2018-11-05T10:48:48.454Z,6240.00
2018-11-05T10:49:48.583Z,6308.00
2018-11-05T10:50:48.774Z,5972.00
2018-11-05T10:51:48.950Z,6512.00
2018-11-05T10:52:48.995Z,6392.00
2018-11-05T10:53:49.129Z,6540.00
2018-11-05T10:54:49.264Z,7028.00
2018-11-05T10:55:49.400Z,7484.00
2018-11-05T10:56:49.602Z,7456.00
2018-11-05T10:57:49.682Z,7704.00
2018-11-05T10:58:49.838Z,7320.00
2018-11-05T10:59:49.983Z,6852.00
2018-11-05T11:00:50.113Z,6692.00
2018-11-05T11:01:50.252Z,6524.00
2018-11-05T11:02:50.392Z,6688.00
2018-11-05T11:03:50.620Z,7008.00
2018-11-05T11:04:50.700Z,6660.00
2018-11-05T11:05:50.842Z,6544.00
2018-11-05T11:06:50.990Z,6680.00
2018-11-05T11:07:51.149Z,6580.00
2018-11-05T11:08:51.288Z,7008.00
2018-11-05T11:09:51.515Z,7812.00
2018-11-05T11:10:51.533Z,6368.00
2018-11-05T11:11:51.686Z,6112.00
2018-11-05T11:12:51.870Z,6648.00
2018-11-05T11:13:51.969Z,7324.00
2018-11-05T11:14:52.101Z,10136.00
2018-11-05T11:15:52.259Z,11576.00
2018-11-05T11:16:52.482Z,12340.00
2018-11-05T11:17:52.502Z,10944.00
2018-11-05T11:18:52.636Z,13216.00
2018-11-05T11:19:52.807Z,13292.00
2018-11-05T11:20:53.024Z,12760.00
2018-11-05T11:21:53.087Z,9636.00
2018-11-05T11:22:53.165Z,9376.00
2018-11-05T11:23:53.322Z,10608.00
2018-11-05T11:24:53.459Z,13740.00
2018-11-05T11:25:53.596Z,12188.00
2018-11-05T11:26:53.730Z,9564.00
2018-11-05T11:27:53.999Z,7064.00
2018-11-05T11:28:54.187Z,7348.00
2018-11-05T11:29:54.116Z,7948.00
2018-11-05T11:30:54.254Z,9924.00
2018-11-05T11:31:54.418Z,10420.00
2018-11-05T11:32:54.638Z,7708.00
2018-11-05T11:33:54.648Z,6520.00
2018-11-05T11:34:54.798Z,7012.00
2018-11-05T11:35:54.931Z,7044.00
2018-11-05T11:36:59.818Z,7132.00
2018-11-05T11:37:55.187Z,7360.00
2018-11-05T11:38:55.330Z,7748.00
2018-11-05T11:39:56.324Z,8648.00
2018-11-05T11:40:55.534Z,8144.00
2018-11-05T11:41:55.674Z,7232.00
2018-11-05T11:42:55.808Z,6616.00
2018-11-05T11:43:55.979Z,6580.00
2018-11-05T11:44:56.214Z,6540.00
2018-11-05T11:45:56.169Z,6676.00
2018-11-05T11:46:56.293Z,6428.00
2018-11-05T11:47:56.471Z,5928.00
2018-11-05T11:48:56.602Z,6540.00
2018-11-05T11:49:56.743Z,5656.00
2018-11-05T11:50:56.878Z,4924.00
2018-11-05T11:51:57.039Z,4708.00
2018-11-05T11:52:57.197Z,4568.00
2018-11-05T11:53:57.310Z,4376.00
2018-11-05T11:54:57.439Z,4360.00
2018-11-05T11:55:57.593Z,4240.00
2018-11-05T11:56:57.725Z,4064.00
2018-11-05T11:57:57.857Z,3972.00
2018-11-05T11:58:57.995Z,3812.00
2018-11-05T11:59:58.155Z,3716.00
2018-11-05T12:00:58.413Z,3788.00
2018-11-05T12:01:58.419Z,4012.00
2018-11-05T12:02:58.561Z,4228.00
2018-11-05T12:03:58.710Z,4276.00
2018-11-05T12:04:58.890Z,4484.00
2018-11-05T12:05:58.983Z,4972.00
2018-11-05T12:06:59.121Z,5644.00
2018-11-05T12:07:59.248Z,6168.00
2018-11-05T12:09:00.155Z,6740.00
2018-11-05T12:09:59.508Z,6292.00
2018-11-05T12:10:59.667Z,5700.00
2018-11-05T12:11:59.799Z,5384.00
2018-11-05T12:12:59.939Z,5424.00
2018-11-05T12:14:00.115Z,6260.00
2018-11-05T12:15:00.429Z,6116.00
2018-11-05T12:16:00.370Z,6404.00
2018-11-05T12:17:00.503Z,5600.00
2018-11-05T12:18:00.647Z,5048.00
2018-11-05T12:19:00.797Z,5512.00
2018-11-05T12:20:00.932Z,5472.00
2018-11-05T12:21:01.071Z,4880.00
2018-11-05T12:22:01.214Z,4600.00
2018-11-05T12:23:01.357Z,4316.00
2018-11-05T12:24:01.489Z,4476.00
2018-11-05T12:25:01.764Z,4572.00
2018-11-05T12:26:01.789Z,4620.00
2018-11-05T12:27:01.930Z,4844.00
2018-11-05T12:28:02.067Z,5336.00
2018-11-05T12:29:02.201Z,5916.00
2018-11-05T12:30:02.342Z,5640.00
2018-11-05T12:31:02.480Z,5352.00
2018-11-05T12:32:02.623Z,5020.00
2018-11-05T12:33:02.759Z,4864.00
2018-11-05T12:34:02.904Z,4652.00
2018-11-05T12:35:03.044Z,4496.00
2018-11-05T12:36:03.182Z,4340.00
2018-11-05T12:37:03.322Z,4056.00
2018-11-05T12:38:03.457Z,3968.00
2018-11-05T12:39:03.594Z,3880.00
2018-11-05T12:40:03.729Z,3944.00
2018-11-05T12:41:03.871Z,3952.00
2018-11-05T12:42:04.002Z,4248.00
2018-11-05T12:43:04.150Z,4316.00
2018-11-05T12:44:04.281Z,4592.00
2018-11-05T12:45:04.496Z,4724.00
2018-11-05T12:46:04.573Z,4564.00
2018-11-05T12:47:04.708Z,4500.00